METAR Formatted Surface Weather Observation
Issued by NWS

Home | Current Version | Previous Version | Text Only | Print | Product List | Glossary On
Versions: 1
000
SAUS42 KTAE 212212
MTR1J0
METAR K1J0 212158Z AUTO 00000KT 10SM TS CLR 26/25 A3010 RMK AO2
RAE09 TSB13E41B58 SLP150 P0000 T02560250 $



USA.gov is the U.S. government's official web portal to all federal, state and local government web resources and services.